createdAt,value
2024-02-24T00:02:50.549Z,1.10
2024-02-24T00:05:52.149Z,1.63
2024-02-24T00:08:53.771Z,1.55
2024-02-24T00:11:55.599Z,5.50
2024-02-24T00:14:57.202Z,2.30
2024-02-24T00:17:58.836Z,4.10
2024-02-24T00:21:01.683Z,1.67
2024-02-24T00:27:04.840Z,1.17
2024-02-24T00:30:07.634Z,2.88
2024-02-24T00:36:10.780Z,3.03
2024-02-24T00:39:12.897Z,1.00
2024-02-24T00:42:14.471Z,0.95
2024-02-24T00:45:16.003Z,2.40
2024-02-24T00:48:17.569Z,1.35
2024-02-24T00:51:19.472Z,0.88
2024-02-24T00:54:21.029Z,0.70
2024-02-24T00:57:22.672Z,0.73
2024-02-24T01:00:24.408Z,1.60
2024-02-24T01:03:25.979Z,0.70
2024-02-24T01:06:27.560Z,0.70
2024-02-24T01:09:29.423Z,2.60
2024-02-24T01:12:30.990Z,0.77
2024-02-24T01:15:32.604Z,2.28
2024-02-24T01:18:34.244Z,2.33
2024-02-24T01:21:36.859Z,1.55
2024-02-24T01:24:38.571Z,0.95
2024-02-24T01:27:40.376Z,2.53
2024-02-24T01:30:42.259Z,1.80
2024-02-24T01:33:43.915Z,1.43
2024-02-24T01:36:45.554Z,2.83
2024-02-24T01:39:47.450Z,1.17
2024-02-24T01:42:49.004Z,2.67
2024-02-24T01:45:50.572Z,1.55
2024-02-24T01:48:52.367Z,1.90
2024-02-24T01:51:55.185Z,1.63
2024-02-24T01:57:58.772Z,1.35
2024-02-24T02:01:00.400Z,0.80
2024-02-24T02:04:02.056Z,1.77
2024-02-24T02:07:03.743Z,1.02
2024-02-24T02:10:06.866Z,2.28
2024-02-24T02:13:08.445Z,2.50
2024-02-24T02:16:10.010Z,0.80
2024-02-24T02:19:11.610Z,2.90
2024-02-24T02:22:14.750Z,0.70
2024-02-24T02:25:17.557Z,0.80
2024-02-24T02:31:21.011Z,1.27
2024-02-24T02:34:22.673Z,2.47
2024-02-24T02:37:24.305Z,1.15
2024-02-24T02:40:25.972Z,2.38
2024-02-24T02:43:27.538Z,0.80
2024-02-24T02:46:29.097Z,0.80
2024-02-24T02:49:31.993Z,0.80
2024-02-24T02:52:33.631Z,0.73
2024-02-24T02:55:35.251Z,0.75
2024-02-24T02:58:36.844Z,0.70
2024-02-24T03:01:38.416Z,0.80
2024-02-24T03:04:39.987Z,5.57
2024-02-24T03:07:41.565Z,0.85
2024-02-24T03:10:43.779Z,0.82
2024-02-24T03:13:45.354Z,1.02
2024-02-24T03:16:47.014Z,2.45
2024-02-24T03:19:48.643Z,2.42
2024-02-24T03:22:50.202Z,1.08
2024-02-24T03:25:51.800Z,1.65
2024-02-24T03:28:53.446Z,1.35
2024-02-24T03:31:55.232Z,0.70
2024-02-24T03:34:56.851Z,0.60
2024-02-24T03:37:58.467Z,2.00
2024-02-24T03:41:00.337Z,0.98
2024-02-24T03:44:02.079Z,4.40
2024-02-24T03:47:03.636Z,0.70
2024-02-24T03:50:06.433Z,1.08
2024-02-24T03:56:09.694Z,1.27
2024-02-24T03:59:11.450Z,0.93
2024-02-24T04:02:13.070Z,1.10
2024-02-24T04:05:14.752Z,2.47
2024-02-24T04:08:16.447Z,1.58
2024-02-24T04:11:19.463Z,3.60
2024-02-24T04:14:21.269Z,0.73
2024-02-24T04:17:22.977Z,1.98
2024-02-24T04:20:24.800Z,1.05
2024-02-24T04:23:26.423Z,2.20
2024-02-24T04:26:28.021Z,1.40
2024-02-24T04:29:29.811Z,1.10
2024-02-24T04:32:31.502Z,0.77
2024-02-24T04:35:33.121Z,1.10
2024-02-24T04:38:34.757Z,0.85
2024-02-24T04:41:36.598Z,1.48
2024-02-24T04:44:38.439Z,1.23
2024-02-24T04:47:40.157Z,0.63
2024-02-24T04:50:41.841Z,1.48
2024-02-24T04:53:43.459Z,0.77
2024-02-24T04:56:45.158Z,1.30
2024-02-24T04:59:46.985Z,0.80
2024-02-24T05:02:50.652Z,1.05
2024-02-24T05:05:52.499Z,1.75
2024-02-24T05:08:54.186Z,0.73
2024-02-24T05:11:57.105Z,0.82
2024-02-24T05:14:58.664Z,0.70
2024-02-24T05:18:00.352Z,2.83
2024-02-24T05:21:02.235Z,0.80
2024-02-24T05:24:03.796Z,0.88
2024-02-24T05:27:05.363Z,0.60
2024-02-24T05:30:07.035Z,2.53
2024-02-24T05:33:08.696Z,0.88
2024-02-24T05:36:10.316Z,0.60
2024-02-24T05:39:11.853Z,0.75
2024-02-24T05:42:13.767Z,0.70
2024-02-24T05:45:15.332Z,0.83
2024-02-24T05:48:16.963Z,0.73
2024-02-24T05:51:22.267Z,1.23
2024-02-24T05:54:24.245Z,1.95
2024-02-24T05:57:25.970Z,0.83
2024-02-24T06:00:27.803Z,0.77
2024-02-24T06:03:29.412Z,0.90
2024-02-24T06:06:31.051Z,0.73
2024-02-24T06:09:33.707Z,0.75
2024-02-24T06:12:35.573Z,0.95
2024-02-24T06:15:37.228Z,0.70
2024-02-24T06:18:38.965Z,3.30
2024-02-24T06:21:41.244Z,0.70
2024-02-24T06:24:42.820Z,0.70
2024-02-24T06:27:44.451Z,1.40
2024-02-24T06:30:46.654Z,1.13
2024-02-24T06:33:48.253Z,1.63
2024-02-24T06:36:49.847Z,0.85
2024-02-24T06:39:51.485Z,0.70
2024-02-24T06:42:53.036Z,1.60
2024-02-24T06:45:54.630Z,1.83
2024-02-24T06:48:56.415Z,1.55
2024-02-24T06:51:58.347Z,1.55
2024-02-24T06:55:01.242Z,2.47
2024-02-24T07:01:04.700Z,0.70
2024-02-24T07:04:06.503Z,1.17
2024-02-24T07:07:08.785Z,1.67
2024-02-24T07:10:10.729Z,5.07
2024-02-24T07:13:12.292Z,0.98
2024-02-24T07:16:15.127Z,1.52
2024-02-24T07:22:18.434Z,0.75
2024-02-24T07:25:20.007Z,2.28
2024-02-24T07:28:21.564Z,0.70
2024-02-24T07:31:23.234Z,1.40
2024-02-24T07:34:24.915Z,1.05
2024-02-24T07:37:26.523Z,1.08
2024-02-24T07:40:28.259Z,1.30
2024-02-24T07:43:29.848Z,2.40
2024-02-24T07:46:31.557Z,1.45
2024-02-24T07:49:33.220Z,1.38
2024-02-24T07:52:34.797Z,1.10
2024-02-24T07:55:36.403Z,1.10
2024-02-24T07:58:37.948Z,2.38
2024-02-24T08:01:39.591Z,1.35
2024-02-24T08:04:41.177Z,2.78
2024-02-24T08:07:43.071Z,2.53
2024-02-24T08:10:44.738Z,3.07
2024-02-24T08:13:47.116Z,3.28
2024-02-24T08:16:48.664Z,1.85
2024-02-24T08:19:50.325Z,2.55
2024-02-24T08:22:53.179Z,6.57
2024-02-24T08:28:58.868Z,5.53
2024-02-24T08:32:00.629Z,4.38
2024-02-24T08:35:02.277Z,4.45
2024-02-24T08:38:04.294Z,6.43
2024-02-24T08:41:06.277Z,10.20
2024-02-24T08:44:07.899Z,1.98
2024-02-24T08:47:09.536Z,3.90
2024-02-24T08:50:11.216Z,2.28
2024-02-24T08:53:12.806Z,3.65
2024-02-24T08:56:15.313Z,1.90
2024-02-24T08:59:17.032Z,4.45
2024-02-24T09:02:20.449Z,3.08
2024-02-24T09:05:22.063Z,3.60
2024-02-24T09:08:23.794Z,3.13
2024-02-24T09:11:25.449Z,9.48
2024-02-24T09:14:27.064Z,2.10
2024-02-24T09:17:28.743Z,8.93
2024-02-24T09:20:30.388Z,3.55
2024-02-24T09:23:31.952Z,2.75
2024-02-24T09:26:33.733Z,4.45
2024-02-24T09:29:35.379Z,5.20
2024-02-24T09:32:37.028Z,4.53
2024-02-24T09:35:38.688Z,2.83
2024-02-24T09:38:40.306Z,2.53
2024-02-24T09:41:42.219Z,2.00
2024-02-24T09:44:43.847Z,6.45
2024-02-24T09:47:45.705Z,7.95
2024-02-24T09:50:47.371Z,4.80
2024-02-24T09:53:49.034Z,3.67
2024-02-24T09:56:50.739Z,5.00
2024-02-24T09:59:52.447Z,3.40
2024-02-24T10:02:54.145Z,5.67
2024-02-24T10:05:55.992Z,2.97
2024-02-24T10:08:57.670Z,2.55
2024-02-24T10:11:59.404Z,3.13
2024-02-24T10:15:01.044Z,5.55
2024-02-24T10:18:02.868Z,5.13
2024-02-24T10:21:04.693Z,3.40
2024-02-24T10:24:06.323Z,8.35
2024-02-24T10:27:07.927Z,8.43
2024-02-24T10:30:09.990Z,5.00
2024-02-24T10:36:13.998Z,6.40
2024-02-24T10:39:15.755Z,5.78
2024-02-24T10:42:17.418Z,9.85
2024-02-24T10:45:19.060Z,6.27
2024-02-24T10:48:20.731Z,8.27
2024-02-24T10:51:23.189Z,4.18
2024-02-24T10:54:24.851Z,3.15
2024-02-24T10:57:26.439Z,3.80
2024-02-24T11:00:28.331Z,6.60
2024-02-24T11:03:29.884Z,4.53
2024-02-24T11:06:33.979Z,6.10
2024-02-24T11:09:36.074Z,5.50
2024-02-24T11:12:37.707Z,6.70
2024-02-24T11:15:39.318Z,3.20
2024-02-24T11:18:40.981Z,2.30
2024-02-24T11:21:43.187Z,4.47
2024-02-24T11:24:44.743Z,5.28
2024-02-24T11:27:46.288Z,5.23
2024-02-24T11:30:49.118Z,4.97
2024-02-24T11:33:51.465Z,7.80
2024-02-24T11:36:53.074Z,8.32
2024-02-24T11:39:55.663Z,6.17
2024-02-24T11:42:57.224Z,11.18
2024-02-24T11:45:58.781Z,4.67
2024-02-24T11:49:00.953Z,4.03
2024-02-24T11:52:03.302Z,9.85
2024-02-24T11:55:04.866Z,9.07
2024-02-24T11:58:09.040Z,2.70
2024-02-24T12:01:11.900Z,9.73
2024-02-24T12:04:16.244Z,7.80
2024-02-24T12:07:18.016Z,2.22
2024-02-24T12:10:19.830Z,3.78
2024-02-24T12:13:21.376Z,4.45
2024-02-24T12:16:23.064Z,2.20
2024-02-24T12:19:26.328Z,5.00
2024-02-24T12:22:27.949Z,6.95
2024-02-24T12:25:29.534Z,3.17
2024-02-24T12:28:32.367Z,3.67
2024-02-24T12:31:34.115Z,3.97
2024-02-24T12:34:35.847Z,1.90
2024-02-24T12:37:37.457Z,2.70
2024-02-24T12:40:41.546Z,2.47
2024-02-24T12:43:43.405Z,1.20
2024-02-24T12:46:44.990Z,1.60
2024-02-24T12:49:46.845Z,3.10
2024-02-24T12:52:48.464Z,2.50
2024-02-24T12:55:50.564Z,1.83
2024-02-24T12:58:52.119Z,1.48
2024-02-24T13:01:53.659Z,3.10
2024-02-24T13:04:55.284Z,2.70
2024-02-24T13:07:57.009Z,2.88
2024-02-24T13:10:59.118Z,4.65
2024-02-24T13:14:00.831Z,6.40
2024-02-24T13:17:02.414Z,3.97
2024-02-24T13:20:04.363Z,3.10
2024-02-24T13:23:06.051Z,1.85
2024-02-24T13:26:07.598Z,1.55
2024-02-24T13:29:09.389Z,2.17
2024-02-24T13:32:11.125Z,2.38
2024-02-24T13:35:12.743Z,2.78
2024-02-24T13:38:14.546Z,1.48
2024-02-24T13:41:17.222Z,0.80
2024-02-24T13:44:18.925Z,2.60
2024-02-24T13:47:20.541Z,4.05
2024-02-24T13:50:23.575Z,2.42
2024-02-24T13:53:25.946Z,2.80
2024-02-24T13:56:27.595Z,2.67
2024-02-24T13:59:29.246Z,2.80
2024-02-24T14:02:31.710Z,3.15
2024-02-24T14:05:34.560Z,4.15
2024-02-24T14:08:36.394Z,1.70
2024-02-24T14:11:38.336Z,13.32
2024-02-24T14:14:39.992Z,5.57
2024-02-24T14:17:41.725Z,15.77
2024-02-24T14:20:44.044Z,3.53
2024-02-24T14:23:45.721Z,2.47
2024-02-24T14:26:47.395Z,1.67
2024-02-24T14:29:49.336Z,3.60
2024-02-24T14:32:50.981Z,3.78
2024-02-24T14:35:52.706Z,6.50
2024-02-24T14:38:54.503Z,4.85
2024-02-24T14:41:57.067Z,4.85
2024-02-24T14:44:58.853Z,2.67
2024-02-24T14:48:05.539Z,3.45
2024-02-24T14:51:07.980Z,3.72
2024-02-24T14:54:09.597Z,2.95
2024-02-24T14:57:13.307Z,4.82
2024-02-24T15:00:15.051Z,5.95
2024-02-24T15:03:16.728Z,2.53
2024-02-24T15:06:18.422Z,1.58
2024-02-24T15:09:21.298Z,2.95
2024-02-24T15:12:23.067Z,2.38
2024-02-24T15:15:24.753Z,2.13
2024-02-24T15:18:26.505Z,1.50
2024-02-24T15:21:28.381Z,2.03
2024-02-24T15:24:29.918Z,0.82
2024-02-24T15:27:31.974Z,1.20
2024-02-24T15:30:34.113Z,1.85
2024-02-24T15:33:35.856Z,6.72
2024-02-24T15:36:37.425Z,2.30
2024-02-24T15:39:39.817Z,2.43
2024-02-24T15:45:42.927Z,5.13
2024-02-24T15:48:44.633Z,3.07
2024-02-24T15:51:46.424Z,2.42
2024-02-24T15:54:47.963Z,3.08
2024-02-24T15:57:49.604Z,4.37
2024-02-24T16:00:51.451Z,2.33
2024-02-24T16:03:53.133Z,3.15
2024-02-24T16:06:54.862Z,3.60
2024-02-24T16:09:56.733Z,2.03
2024-02-24T16:12:58.331Z,2.88
2024-02-24T16:16:00.278Z,3.55
2024-02-24T16:19:02.052Z,5.18
2024-02-24T16:22:03.869Z,4.15
2024-02-24T16:25:05.649Z,2.50
2024-02-24T16:28:07.210Z,3.33
2024-02-24T16:31:10.070Z,3.37
2024-02-24T16:34:11.970Z,2.45
2024-02-24T16:37:13.664Z,5.78
2024-02-24T16:40:15.436Z,3.83
2024-02-24T16:43:17.315Z,3.40
2024-02-24T16:46:18.881Z,4.53
2024-02-24T16:49:20.540Z,4.63
2024-02-24T16:52:22.523Z,5.80
2024-02-24T16:55:24.347Z,3.45
2024-02-24T16:58:25.987Z,2.30
2024-02-24T17:01:27.630Z,8.73
2024-02-24T17:04:30.136Z,3.67
2024-02-24T17:10:40.204Z,3.65
2024-02-24T17:13:42.978Z,5.05
2024-02-24T17:16:45.525Z,5.43
2024-02-24T17:19:47.592Z,3.17
2024-02-24T17:22:49.537Z,6.60
2024-02-24T17:25:51.170Z,3.53
2024-02-24T17:28:52.737Z,3.47
2024-02-24T17:31:54.489Z,3.70
2024-02-24T17:34:56.114Z,8.73
2024-02-24T17:37:58.702Z,3.53
2024-02-24T17:41:01.441Z,7.38
2024-02-24T17:44:03.194Z,4.00
2024-02-24T17:47:04.939Z,9.75
2024-02-24T17:50:06.664Z,5.63
2024-02-24T17:53:08.812Z,6.67
2024-02-24T17:56:10.393Z,11.27
2024-02-24T17:59:11.962Z,14.05
2024-02-24T18:02:14.089Z,5.57
2024-02-24T18:05:18.690Z,3.70
2024-02-24T18:08:20.363Z,6.55
2024-02-24T18:11:23.714Z,3.47
2024-02-24T18:14:25.358Z,7.15
2024-02-24T18:17:27.203Z,6.55
2024-02-24T18:20:29.076Z,5.33
2024-02-24T18:23:30.777Z,8.30
2024-02-24T18:26:32.354Z,7.40
2024-02-24T18:29:34.080Z,7.38
2024-02-24T18:32:35.892Z,4.50
2024-02-24T18:35:37.676Z,8.20
2024-02-24T18:38:39.361Z,10.07
2024-02-24T18:41:41.249Z,4.77
2024-02-24T18:44:42.860Z,6.85
2024-02-24T18:47:44.975Z,7.43
2024-02-24T18:50:46.926Z,5.88
2024-02-24T18:53:49.649Z,5.57
2024-02-24T18:59:54.145Z,8.00
2024-02-24T19:02:55.957Z,8.35
2024-02-24T19:05:57.813Z,8.73
2024-02-24T19:08:59.576Z,9.98
2024-02-24T19:12:01.432Z,8.90
2024-02-24T19:15:03.277Z,11.63
2024-02-24T19:18:05.428Z,9.82
2024-02-24T19:21:07.467Z,7.88
2024-02-24T19:24:12.771Z,8.30
2024-02-24T19:27:14.574Z,9.65
2024-02-24T19:30:16.259Z,7.88
2024-02-24T19:33:17.985Z,8.10
2024-02-24T19:36:19.696Z,7.73
2024-02-24T19:39:21.808Z,9.00
2024-02-24T19:42:24.926Z,10.63
2024-02-24T19:45:26.469Z,11.32
2024-02-24T19:48:28.145Z,13.52
2024-02-24T19:51:29.992Z,11.15
2024-02-24T19:54:31.584Z,13.03
2024-02-24T19:57:33.260Z,8.82
2024-02-24T20:00:37.148Z,12.45
2024-02-24T20:03:38.735Z,9.00
2024-02-24T20:06:40.631Z,7.43
2024-02-24T20:09:43.576Z,9.60
2024-02-24T20:12:45.216Z,8.18
2024-02-24T20:15:46.894Z,8.27
2024-02-24T20:18:48.605Z,12.63
2024-02-24T20:21:50.416Z,8.43
2024-02-24T20:24:51.990Z,9.35
2024-02-24T20:27:53.571Z,9.13
2024-02-24T20:30:55.474Z,10.23
2024-02-24T20:34:03.756Z,8.13
2024-02-24T20:37:09.710Z,14.55
2024-02-24T20:40:11.458Z,9.20
2024-02-24T20:43:13.015Z,8.93
2024-02-24T20:46:14.559Z,7.22
2024-02-24T20:49:22.208Z,7.25
2024-02-24T20:52:23.823Z,8.50
2024-02-24T20:55:26.238Z,7.72
2024-02-24T20:58:27.966Z,7.35
2024-02-24T21:01:30.745Z,8.82
2024-02-24T21:04:32.418Z,10.00
2024-02-24T21:07:34.016Z,10.10
2024-02-24T21:10:35.652Z,7.65
2024-02-24T21:13:38.542Z,6.95
2024-02-24T21:16:40.243Z,10.02
2024-02-24T21:19:41.931Z,10.13
2024-02-24T21:22:46.449Z,8.45
2024-02-24T21:25:48.119Z,10.23
2024-02-24T21:28:49.705Z,6.75
2024-02-24T21:31:54.789Z,7.60
2024-02-24T21:34:56.803Z,11.35
2024-02-24T21:37:58.371Z,8.35
2024-02-24T21:41:00.140Z,9.95
2024-02-24T21:44:01.680Z,14.23
2024-02-24T21:47:03.243Z,5.53
2024-02-24T21:50:05.327Z,5.63
2024-02-24T21:53:06.926Z,7.40
2024-02-24T21:56:08.474Z,7.18
2024-02-24T21:59:10.442Z,6.45
2024-02-24T22:02:12.008Z,10.63
2024-02-24T22:05:14.447Z,3.08
2024-02-24T22:08:16.165Z,8.80
2024-02-24T22:11:17.917Z,6.35
2024-02-24T22:14:22.931Z,5.97
2024-02-24T22:17:25.180Z,5.43
2024-02-24T22:20:28.640Z,6.47
2024-02-24T22:23:30.357Z,6.18
2024-02-24T22:26:32.682Z,8.27
2024-02-24T22:29:34.637Z,5.82
2024-02-24T22:32:36.431Z,10.10
2024-02-24T22:35:38.380Z,6.63
2024-02-24T22:38:40.003Z,5.53
2024-02-24T22:41:43.269Z,4.55
2024-02-24T22:44:44.984Z,4.35
2024-02-24T22:47:48.617Z,5.55
2024-02-24T22:50:50.740Z,6.57
2024-02-24T22:53:52.388Z,4.22
2024-02-24T22:56:54.140Z,6.35
2024-02-24T22:59:56.032Z,6.88
2024-02-24T23:02:57.650Z,7.33
2024-02-24T23:05:59.374Z,11.57
2024-02-24T23:09:02.260Z,7.30
2024-02-24T23:12:04.246Z,8.50
2024-02-24T23:15:05.980Z,4.53
2024-02-24T23:18:07.991Z,5.75
2024-02-24T23:21:11.112Z,3.97
2024-02-24T23:24:12.793Z,4.45
2024-02-24T23:27:14.504Z,9.02
2024-02-24T23:30:16.400Z,2.78
2024-02-24T23:33:18.097Z,4.27
2024-02-24T23:36:19.737Z,3.95
2024-02-24T23:39:21.884Z,5.68
2024-02-24T23:42:23.438Z,5.15
2024-02-24T23:45:24.978Z,5.57
2024-02-24T23:48:26.666Z,4.43
2024-02-24T23:51:28.618Z,11.48
2024-02-24T23:54:30.174Z,4.67
2024-02-24T23:57:34.771Z,3.97
